createdAt,value
2018-01-04T00:00:50.925Z,98514.24
2018-01-04T00:03:19.878Z,98517.22
2018-01-04T00:05:48.505Z,98535.95
2018-01-04T00:08:16.892Z,98528.31
2018-01-04T00:10:46.825Z,98517.66
2018-01-04T00:13:15.609Z,98514.75
2018-01-04T00:15:44.711Z,98500.25
2018-01-04T00:18:15.041Z,98508.38
2018-01-04T00:20:45.096Z,98517.75
2018-01-04T00:23:15.289Z,98511.67
2018-01-04T00:25:45.013Z,98520.05
2018-01-04T00:28:14.340Z,98515.03
2018-01-04T00:30:44.796Z,98527.66
2018-01-04T00:33:14.488Z,98533.20
2018-01-04T00:35:43.840Z,98525.48
2018-01-04T00:38:12.473Z,98545.71
2018-01-04T00:40:42.644Z,98545.79
2018-01-04T00:43:12.221Z,98535.33
2018-01-04T00:45:41.445Z,98543.20
2018-01-04T00:48:09.888Z,98546.84
2018-01-04T00:50:39.012Z,98551.20
2018-01-04T00:53:08.152Z,98564.39
2018-01-04T00:55:36.976Z,98550.67
2018-01-04T00:58:06.083Z,98557.07
2018-01-04T01:00:34.813Z,98569.78
2018-01-04T01:03:03.216Z,98574.04
2018-01-04T01:05:31.940Z,98592.88
2018-01-04T01:08:00.340Z,98569.86
2018-01-04T01:10:29.689Z,98581.92
2018-01-04T01:12:58.072Z,98587.85
2018-01-04T01:15:26.421Z,98576.95
2018-01-04T01:17:54.812Z,98589.39
2018-01-04T01:20:26.752Z,98601.17
2018-01-04T01:22:55.896Z,98617.05
2018-01-04T01:25:25.024Z,98590.19
2018-01-04T01:27:53.389Z,98598.11
2018-01-04T01:30:24.165Z,98608.45
2018-01-04T01:32:52.563Z,98612.63
2018-01-04T01:35:20.967Z,98602.38
2018-01-04T01:37:50.064Z,98613.63
2018-01-04T01:40:19.226Z,98614.88
2018-01-04T01:42:47.588Z,98619.92
2018-01-04T01:45:15.959Z,98609.99
2018-01-04T01:47:44.276Z,98625.92
2018-01-04T01:50:13.378Z,98627.77
2018-01-04T01:52:42.490Z,98622.82
2018-01-04T01:55:11.356Z,98626.34
2018-01-04T01:57:41.143Z,98591.77
2018-01-04T02:00:11.177Z,98632.75
2018-01-04T02:02:39.521Z,98628.66
2018-01-04T02:05:08.306Z,98638.22
2018-01-04T02:07:37.176Z,98643.26
2018-01-04T02:12:47.213Z,98644.66
2018-01-04T02:15:17.283Z,98659.42
2018-01-04T02:17:47.147Z,98639.74
2018-01-04T02:23:52.369Z,98658.29
2018-01-04T02:26:39.025Z,98650.13
2018-01-04T02:29:26.869Z,98658.48
2018-01-04T02:32:13.655Z,98662.88
2018-01-04T02:35:01.881Z,98644.52
2018-01-04T02:37:50.036Z,98665.86
2018-01-04T02:40:37.467Z,98663.45
2018-01-04T02:43:24.180Z,98661.89
2018-01-04T02:46:10.679Z,98651.32
2018-01-04T02:48:39.099Z,98655.26
2018-01-04T02:51:09.811Z,98680.75
2018-01-04T02:53:38.156Z,98674.20
2018-01-04T02:56:07.383Z,98681.28
2018-01-04T02:58:35.899Z,98683.16
2018-01-04T03:01:04.255Z,98681.28
2018-01-04T03:03:32.595Z,98694.18
2018-01-04T03:06:01.115Z,98691.73
2018-01-04T03:08:29.851Z,98680.60
2018-01-04T03:10:58.211Z,98690.49
2018-01-04T03:13:28.218Z,98694.11
2018-01-04T03:15:56.662Z,98702.63
2018-01-04T03:18:26.575Z,98709.58
2018-01-04T03:20:55.866Z,98707.75
2018-01-04T03:23:30.031Z,98719.08
2018-01-04T03:26:04.684Z,98708.30
2018-01-04T03:28:38.572Z,98704.50
2018-01-04T03:31:13.076Z,98711.84
2018-01-04T03:33:46.887Z,98726.41
2018-01-04T03:36:21.646Z,98715.26
2018-01-04T03:38:55.715Z,98714.11
2018-01-04T03:41:29.491Z,98708.75
2018-01-04T03:44:04.174Z,98733.44
2018-01-04T03:46:37.966Z,98709.25
2018-01-04T03:49:12.138Z,98738.78
2018-01-04T03:51:46.774Z,98732.00
2018-01-04T03:54:20.646Z,98730.36
2018-01-04T03:56:54.390Z,98736.45
2018-01-04T03:59:30.390Z,98750.78
2018-01-04T04:02:04.102Z,98738.86
2018-01-04T04:04:39.175Z,98755.69
2018-01-04T04:07:13.802Z,98754.09
2018-01-04T04:09:42.154Z,98745.84
2018-01-04T04:12:10.530Z,98756.47
2018-01-04T04:14:40.150Z,98770.08
2018-01-04T04:17:09.242Z,98770.10
2018-01-04T04:19:38.375Z,98763.76
2018-01-04T04:22:07.922Z,98774.66
2018-01-04T04:24:36.254Z,98772.11
2018-01-04T04:27:05.446Z,98778.91
2018-01-04T04:29:34.510Z,98776.15
2018-01-04T04:32:03.634Z,98777.89
2018-01-04T04:34:32.770Z,98778.69
2018-01-04T04:37:01.122Z,98782.22
2018-01-04T04:39:30.946Z,98782.11
2018-01-04T04:41:59.322Z,98788.55
2018-01-04T04:44:27.630Z,98791.98
2018-01-04T04:46:56.338Z,98786.11
2018-01-04T04:49:25.094Z,98787.05
2018-01-04T04:51:53.429Z,98793.95
2018-01-04T04:54:21.875Z,98780.63
2018-01-04T04:56:50.978Z,98791.75
2018-01-04T04:59:20.158Z,98800.08
2018-01-04T05:01:48.470Z,98786.42
2018-01-04T05:04:17.217Z,98809.10
2018-01-04T05:06:45.530Z,98807.87
2018-01-04T05:09:13.875Z,98787.93
2018-01-04T05:11:42.200Z,98806.30
2018-01-04T05:14:10.635Z,98796.50
2018-01-04T05:16:38.953Z,98795.08
2018-01-04T05:19:08.033Z,98801.61
2018-01-04T05:21:36.427Z,98806.23
2018-01-04T05:24:04.753Z,98816.66
2018-01-04T05:26:33.126Z,98819.52
2018-01-04T05:29:01.449Z,98825.70
2018-01-04T05:31:30.162Z,98830.13
2018-01-04T05:33:58.918Z,98835.34
2018-01-04T05:36:27.274Z,98841.59
2018-01-04T05:38:56.499Z,98833.55
2018-01-04T05:41:24.829Z,98840.37
2018-01-04T05:43:53.151Z,98846.02
2018-01-04T05:46:21.509Z,98836.62
2018-01-04T05:48:49.865Z,98847.52
2018-01-04T05:51:18.221Z,98853.48
2018-01-04T05:53:48.057Z,98874.84
2018-01-04T05:56:17.765Z,98868.33
2018-01-04T05:58:46.106Z,98871.06
2018-01-04T06:01:14.481Z,98859.55
2018-01-04T06:03:43.663Z,98873.20
2018-01-04T06:06:13.837Z,98863.84
2018-01-04T06:08:42.212Z,98877.86
2018-01-04T06:11:10.534Z,98869.69
2018-01-04T06:13:38.851Z,98873.80
2018-01-04T06:16:07.657Z,98879.41
2018-01-04T06:18:35.945Z,98881.13
2018-01-04T06:21:05.085Z,98885.48
2018-01-04T06:23:33.409Z,98884.45
2018-01-04T06:26:01.745Z,98884.59
2018-01-04T06:28:30.114Z,98885.91
2018-01-04T06:30:58.433Z,98893.95
2018-01-04T06:33:26.789Z,98896.84
2018-01-04T06:35:55.905Z,98894.34
2018-01-04T06:38:25.082Z,98896.27
2018-01-04T06:40:53.441Z,98895.13
2018-01-04T06:43:21.765Z,98898.65
2018-01-04T06:45:50.089Z,98892.93
2018-01-04T06:48:18.449Z,98897.91
2018-01-04T06:50:47.573Z,98899.68
2018-01-04T06:53:16.285Z,98893.64
2018-01-04T06:55:44.650Z,98894.22
2018-01-04T06:58:13.029Z,98892.57
2018-01-04T07:00:41.378Z,98896.95
2018-01-04T07:03:09.745Z,98892.42
2018-01-04T07:05:38.073Z,98904.11
2018-01-04T07:08:06.441Z,98907.62
2018-01-04T07:10:34.813Z,98910.11
2018-01-04T07:13:03.153Z,98910.18
2018-01-04T07:15:31.489Z,98906.14
2018-01-04T07:17:59.845Z,98907.08
2018-01-04T07:20:28.161Z,98913.78
2018-01-04T07:22:57.275Z,98915.17
2018-01-04T07:25:26.745Z,98915.17
2018-01-04T07:27:56.264Z,98923.22
2018-01-04T07:30:24.621Z,98926.28
2018-01-04T07:32:53.085Z,98918.23
2018-01-04T07:35:22.224Z,98925.14
2018-01-04T07:37:51.445Z,98934.18
2018-01-04T07:40:19.764Z,98935.95
2018-01-04T07:42:48.869Z,98922.74
2018-01-04T07:45:17.236Z,98926.23
2018-01-04T07:47:45.556Z,98929.61
2018-01-04T07:50:14.649Z,98932.88
2018-01-04T07:52:43.793Z,98943.45
2018-01-04T07:55:12.133Z,98940.47
2018-01-04T07:57:41.229Z,98937.07
2018-01-04T08:00:09.981Z,98938.47
2018-01-04T08:02:38.714Z,98941.00
2018-01-04T08:05:07.445Z,98948.01
2018-01-04T08:07:36.577Z,98956.75
2018-01-04T08:10:05.741Z,98957.99
2018-01-04T08:12:34.110Z,98969.33
2018-01-04T08:15:02.469Z,98970.22
2018-01-04T08:17:30.801Z,98975.41
2018-01-04T08:20:00.605Z,98973.42
2018-01-04T08:22:28.974Z,98975.89
2018-01-04T08:25:11.345Z,98981.99
2018-01-04T08:27:40.103Z,98979.69
2018-01-04T08:30:08.490Z,98987.39
2018-01-04T08:32:37.581Z,98983.03
2018-01-04T08:35:05.953Z,98983.03
2018-01-04T08:37:34.281Z,98983.84
2018-01-04T08:40:02.619Z,98981.25
2018-01-04T08:42:30.993Z,98993.73
2018-01-04T08:45:00.700Z,98991.98
2018-01-04T08:47:29.480Z,99003.12
2018-01-04T08:49:57.808Z,99003.03
2018-01-04T08:52:27.285Z,99011.57
2018-01-04T08:54:55.692Z,99014.91
2018-01-04T08:57:24.028Z,99014.39
2018-01-04T08:59:53.956Z,99010.39
2018-01-04T09:02:22.322Z,99018.52
2018-01-04T09:04:50.909Z,99014.69
2018-01-04T09:07:19.649Z,99025.16
2018-01-04T09:09:48.006Z,99023.73
2018-01-04T09:12:23.480Z,99023.83
2018-01-04T09:14:51.836Z,99021.43
2018-01-04T09:17:20.584Z,99028.33
2018-01-04T09:19:49.333Z,99022.21
2018-01-04T09:22:18.436Z,99022.52
2018-01-04T09:24:47.582Z,99019.95
2018-01-04T09:27:15.962Z,99023.34
2018-01-04T09:29:45.044Z,99025.80
2018-01-04T09:32:13.410Z,99027.84
2018-01-04T09:34:41.745Z,99022.45
2018-01-04T09:37:10.098Z,99026.61
2018-01-04T09:39:38.832Z,99018.70
2018-01-04T09:42:07.980Z,99014.00
2018-01-04T09:44:36.324Z,99017.42
2018-01-04T09:47:05.436Z,99015.98
2018-01-04T09:49:34.569Z,99035.59
2018-01-04T09:52:03.324Z,99021.70
2018-01-04T09:54:31.673Z,99021.77
2018-01-04T09:57:00.001Z,99024.17
2018-01-04T09:59:29.656Z,99028.98
2018-01-04T10:01:58.396Z,99024.75
2018-01-04T10:04:26.748Z,99031.84
2018-01-04T10:06:55.116Z,99024.19
2018-01-04T10:09:23.433Z,99019.30
2018-01-04T10:11:51.801Z,99023.36
2018-01-04T10:14:20.154Z,99024.66
2018-01-04T10:16:48.865Z,99029.96
2018-01-04T10:19:17.241Z,99025.41
2018-01-04T10:21:46.717Z,99030.71
2018-01-04T10:24:15.084Z,99032.48
2018-01-04T10:26:43.832Z,99038.77
2018-01-04T10:29:12.188Z,99058.00
2018-01-04T10:31:40.912Z,99042.17
2018-01-04T10:34:10.365Z,99045.88
2018-01-04T10:36:39.071Z,99045.81
2018-01-04T10:39:07.449Z,99053.35
2018-01-04T10:41:35.789Z,99042.91
2018-01-04T10:44:04.180Z,99039.58
2018-01-04T10:46:32.504Z,99039.25
2018-01-04T10:49:02.458Z,99039.32
2018-01-04T10:51:31.600Z,99033.86
2018-01-04T10:54:00.696Z,99036.06
2018-01-04T10:56:29.074Z,99026.09
2018-01-04T10:58:57.467Z,99032.23
2018-01-04T11:01:26.863Z,99024.92
2018-01-04T11:03:55.422Z,99020.34
2018-01-04T11:06:23.711Z,99026.09
2018-01-04T11:08:52.099Z,99026.97
2018-01-04T11:11:20.801Z,99036.71
2018-01-04T11:13:49.928Z,99039.20
2018-01-04T11:16:19.411Z,99031.42
2018-01-04T11:18:47.736Z,99031.13
2018-01-04T11:21:16.116Z,99023.38
2018-01-04T11:23:44.444Z,99029.42
2018-01-04T11:26:12.827Z,99030.38
2018-01-04T11:28:41.196Z,99037.15
2018-01-04T11:31:09.580Z,99033.28
2018-01-04T11:33:38.316Z,99026.77
2018-01-04T11:36:07.459Z,99025.61
2018-01-04T11:38:36.188Z,99029.41
2018-01-04T11:41:04.919Z,99029.81
2018-01-04T11:43:34.067Z,99025.95
2018-01-04T11:46:03.180Z,99032.02
2018-01-04T11:48:31.559Z,99019.03
2018-01-04T11:50:59.875Z,99017.31
2018-01-04T11:53:28.215Z,99025.69
2018-01-04T11:55:56.583Z,99023.75
2018-01-04T11:58:24.951Z,99026.86
2018-01-04T12:00:53.310Z,99021.49
2018-01-04T12:03:21.884Z,99015.44
2018-01-04T12:05:50.244Z,99009.69
2018-01-04T12:08:19.359Z,99014.94
2018-01-04T12:10:48.124Z,99014.55
2018-01-04T12:13:17.219Z,99010.10
2018-01-04T12:15:46.352Z,99004.20
2018-01-04T12:18:14.691Z,99004.83
2018-01-04T12:20:43.402Z,99011.85
2018-01-04T12:23:12.162Z,99007.12
2018-01-04T12:25:41.291Z,99006.27
2018-01-04T12:28:10.795Z,99011.55
2018-01-04T12:30:39.510Z,99005.92
2018-01-04T12:33:07.878Z,99009.25
2018-01-04T12:35:36.601Z,99013.64
2018-01-04T12:38:04.950Z,99008.55
2018-01-04T12:40:33.398Z,98997.79
2018-01-04T12:43:01.835Z,99007.07
2018-01-04T12:45:30.163Z,99000.40
2018-01-04T12:47:58.558Z,99002.37
2018-01-04T12:50:27.358Z,98998.22
2018-01-04T12:52:55.694Z,98999.94
2018-01-04T12:55:24.074Z,98989.19
2018-01-04T12:57:52.423Z,98994.41
2018-01-04T13:00:21.515Z,98988.37
2018-01-04T13:02:50.647Z,98993.05
2018-01-04T13:05:18.978Z,98985.64
2018-01-04T13:07:47.343Z,98990.89
2018-01-04T13:10:15.695Z,98989.09
2018-01-04T13:12:44.046Z,98993.69
2018-01-04T13:15:12.361Z,98989.67
2018-01-04T13:17:41.495Z,98980.24
2018-01-04T13:20:10.577Z,98983.10
2018-01-04T13:22:39.686Z,98991.98
2018-01-04T13:25:08.818Z,98987.41
2018-01-04T13:27:37.229Z,98987.21
2018-01-04T13:30:05.814Z,98982.06
2018-01-04T13:32:34.151Z,98982.88
2018-01-04T13:35:02.507Z,98979.95
2018-01-04T13:37:31.634Z,98988.08
2018-01-04T13:40:01.665Z,98986.05
2018-01-04T13:42:30.008Z,98991.75
2018-01-04T13:44:59.099Z,98991.81
2018-01-04T13:47:28.229Z,98988.03
2018-01-04T13:49:56.603Z,98988.17
2018-01-04T13:52:26.830Z,98992.53
2018-01-04T13:54:55.293Z,98988.13
2018-01-04T13:57:27.844Z,98983.57
2018-01-04T13:59:57.165Z,98975.81
2018-01-04T14:02:26.258Z,98975.00
2018-01-04T14:04:55.510Z,98974.30
2018-01-04T14:07:25.021Z,98978.88
2018-01-04T14:09:54.321Z,98976.35
2018-01-04T14:12:23.473Z,98966.85
2018-01-04T14:14:51.815Z,98978.20
2018-01-04T14:17:20.941Z,98977.27
2018-01-04T14:19:50.137Z,98974.68
2018-01-04T14:22:18.549Z,98977.72
2018-01-04T14:24:47.667Z,98975.53
2018-01-04T14:27:16.746Z,98973.90
2018-01-04T14:29:45.067Z,98972.06
2018-01-04T14:32:13.393Z,98969.78
2018-01-04T14:34:41.743Z,98959.31
2018-01-04T14:37:11.229Z,98963.46
2018-01-04T14:39:39.977Z,98963.72
2018-01-04T14:42:08.317Z,98967.83
2018-01-04T14:44:36.717Z,98960.22
2018-01-04T14:47:05.473Z,98965.69
2018-01-04T14:49:34.980Z,98963.20
2018-01-04T14:52:03.301Z,98962.97
2018-01-04T14:54:31.662Z,98961.77
2018-01-04T14:57:00.749Z,98959.50
2018-01-04T14:59:30.641Z,98963.88
2018-01-04T15:01:58.985Z,98967.02
2018-01-04T15:04:28.084Z,98962.66
2018-01-04T15:06:57.209Z,98963.42
2018-01-04T15:09:26.745Z,98962.06
2018-01-04T15:11:55.102Z,98960.27
2018-01-04T15:14:23.473Z,98958.34
2018-01-04T15:16:51.798Z,98961.83
2018-01-04T15:19:20.128Z,98961.86
2018-01-04T15:21:48.505Z,98965.78
2018-01-04T15:24:16.845Z,98958.84
2018-01-04T15:26:45.966Z,98953.15
2018-01-04T15:29:14.322Z,98953.20
2018-01-04T15:31:43.069Z,98955.48
2018-01-04T15:34:11.528Z,98955.02
2018-01-04T15:36:39.888Z,98954.21
2018-01-04T15:39:08.277Z,98949.42
2018-01-04T15:41:37.423Z,98962.16
2018-01-04T15:44:05.795Z,98944.89
2018-01-04T15:46:34.141Z,98952.23
2018-01-04T15:49:02.527Z,98953.92
2018-01-04T15:51:30.869Z,98947.75
2018-01-04T15:53:59.201Z,98942.94
2018-01-04T15:56:27.588Z,98944.19
2018-01-04T15:58:55.919Z,98943.02
2018-01-04T16:01:24.352Z,98944.44
2018-01-04T16:03:53.533Z,98936.54
2018-01-04T16:06:22.383Z,98937.09
2018-01-04T16:08:50.716Z,98934.79
2018-01-04T16:11:19.333Z,98929.58
2018-01-04T16:13:47.674Z,98930.55
2018-01-04T16:16:16.117Z,98927.14
2018-01-04T16:18:44.458Z,98922.80
2018-01-04T16:21:12.842Z,98920.89
2018-01-04T16:23:41.194Z,98914.74
2018-01-04T16:26:10.329Z,98911.37
2018-01-04T16:28:38.708Z,98900.84
2018-01-04T16:31:07.506Z,98903.96
2018-01-04T16:33:35.913Z,98900.11
2018-01-04T16:36:04.769Z,98895.84
2018-01-04T16:38:33.841Z,98891.51
2018-01-04T16:41:03.256Z,98888.92
2018-01-04T16:43:31.595Z,98876.34
2018-01-04T16:46:00.393Z,98875.03
2018-01-04T16:48:29.532Z,98872.94
2018-01-04T16:50:59.040Z,98864.91
2018-01-04T16:53:27.432Z,98881.61
2018-01-04T16:55:55.841Z,98860.56
2018-01-04T16:58:24.786Z,98857.98
2018-01-04T17:00:53.190Z,98852.59
2018-01-04T17:03:22.297Z,98853.93
2018-01-04T17:05:51.432Z,98855.58
2018-01-04T17:08:20.274Z,98861.32
2018-01-04T17:10:49.077Z,98854.41
2018-01-04T17:13:18.820Z,98852.20
2018-01-04T17:15:47.218Z,98851.00
2018-01-04T17:18:16.394Z,98849.35
2018-01-04T17:20:45.153Z,98849.42
2018-01-04T17:23:14.749Z,98842.75
2018-01-04T17:25:43.842Z,98839.36
2018-01-04T17:28:12.304Z,98837.41
2018-01-04T17:30:41.474Z,98835.34
2018-01-04T17:33:09.801Z,98834.42
2018-01-04T17:35:38.957Z,98835.77
2018-01-04T17:38:07.347Z,98831.88
2018-01-04T17:40:35.716Z,98828.73
2018-01-04T17:43:05.785Z,98821.30
2018-01-04T17:45:34.928Z,98825.17
2018-01-04T17:48:03.281Z,98822.52
2018-01-04T17:50:31.606Z,98826.44
2018-01-04T17:53:01.504Z,98823.80
2018-01-04T17:55:30.922Z,98823.24
2018-01-04T17:57:59.328Z,98817.52
2018-01-04T18:00:28.460Z,98819.55
2018-01-04T18:02:57.254Z,98816.92
2018-01-04T18:05:26.049Z,98817.62
2018-01-04T18:07:54.416Z,98811.06
2018-01-04T18:10:23.201Z,98813.52
2018-01-04T18:12:51.528Z,98813.59
2018-01-04T18:15:20.004Z,98811.55
2018-01-04T18:17:48.816Z,98798.09
2018-01-04T18:20:17.192Z,98807.19
2018-01-04T18:22:46.344Z,98800.13
2018-01-04T18:25:14.900Z,98790.95
2018-01-04T18:27:43.264Z,98789.98
2018-01-04T18:30:12.428Z,98784.63
2018-01-04T18:32:40.782Z,98788.44
2018-01-04T18:35:09.934Z,98780.77
2018-01-04T18:37:38.303Z,98777.12
2018-01-04T18:40:06.704Z,98778.44
2018-01-04T18:42:35.137Z,98773.61
2018-01-04T18:45:03.524Z,98784.34
2018-01-04T18:47:34.136Z,98773.84
2018-01-04T18:50:02.517Z,98767.88
2018-01-04T18:52:30.857Z,98771.29
2018-01-04T18:54:59.217Z,98771.95
2018-01-04T18:57:28.240Z,98773.72
2018-01-04T18:59:58.067Z,98759.97
2018-01-04T19:02:26.498Z,98754.47
2018-01-04T19:04:54.834Z,98754.39
2018-01-04T19:07:23.841Z,98753.30
2018-01-04T19:09:53.600Z,98753.76
2018-01-04T19:12:23.192Z,98749.56
2018-01-04T19:14:52.504Z,98748.00
2018-01-04T19:17:20.917Z,98751.00
2018-01-04T19:19:49.289Z,98743.36
2018-01-04T19:22:18.567Z,98741.94
2018-01-04T19:24:47.803Z,98742.47
2018-01-04T19:27:16.141Z,98745.41
2018-01-04T19:29:47.222Z,98745.12
2018-01-04T19:32:18.287Z,98744.79
2018-01-04T19:34:47.223Z,98742.99
2018-01-04T19:37:17.917Z,98743.16
2018-01-04T19:39:46.290Z,98740.55
2018-01-04T19:42:17.025Z,98737.30
2018-01-04T19:44:46.327Z,98725.94
2018-01-04T19:47:19.103Z,98731.69
2018-01-04T19:49:48.572Z,98725.86
2018-01-04T19:52:43.851Z,98728.06
2018-01-04T19:55:18.104Z,98720.77
2018-01-04T19:58:09.214Z,98718.45
2018-01-04T20:00:49.229Z,98717.75
2018-01-04T20:03:18.391Z,98708.68
2018-01-04T20:05:47.532Z,98706.64
2018-01-04T20:08:16.012Z,98700.19
2018-01-04T20:10:45.932Z,98692.27
2018-01-04T20:13:16.630Z,98688.70
2018-01-04T20:15:45.813Z,98681.18
2018-01-04T20:18:17.142Z,98674.37
2018-01-04T20:20:47.435Z,98665.35
2018-01-04T20:23:15.794Z,98666.67
2018-01-04T20:25:45.383Z,98657.00
2018-01-04T20:28:13.767Z,98664.90
2018-01-04T20:30:42.916Z,98656.20
2018-01-04T20:33:13.003Z,98654.48
2018-01-04T20:35:43.014Z,98646.27
2018-01-04T20:38:14.618Z,98635.42
2018-01-04T20:40:42.983Z,98626.76
2018-01-04T20:43:12.122Z,98620.48
2018-01-04T20:45:48.234Z,98618.34
2018-01-04T20:48:16.969Z,98605.33
2018-01-04T20:50:48.467Z,98604.19
2018-01-04T20:53:18.154Z,98599.03
2018-01-04T20:55:47.433Z,98601.23
2018-01-04T20:58:16.583Z,98592.37
2018-01-04T21:00:46.242Z,98592.63
2018-01-04T21:03:15.366Z,98581.75
2018-01-04T21:05:44.198Z,98580.04
2018-01-04T21:08:12.979Z,98569.48
2018-01-04T21:10:43.402Z,98564.97
2018-01-04T21:13:13.694Z,98557.12
2018-01-04T21:15:44.271Z,98553.09
2018-01-04T21:18:12.870Z,98546.20
2018-01-04T21:20:43.281Z,98545.48
2018-01-04T21:23:14.579Z,98544.45
2018-01-04T21:25:47.102Z,98541.74
2018-01-04T21:28:16.403Z,98533.41
2018-01-04T21:30:46.769Z,98534.47
2018-01-04T21:33:17.241Z,98534.28
2018-01-04T21:35:46.986Z,98525.41
2018-01-04T21:38:17.457Z,98518.80
2018-01-04T21:40:46.738Z,98514.20
2018-01-04T21:43:16.794Z,98506.88
2018-01-04T21:45:50.257Z,98506.45
2018-01-04T21:48:19.813Z,98494.53
2018-01-04T21:50:49.573Z,98483.41
2018-01-04T21:53:20.762Z,98486.27
2018-01-04T21:55:50.785Z,98483.19
2018-01-04T21:58:20.745Z,98486.30
2018-01-04T22:00:50.909Z,98487.00
2018-01-04T22:03:19.905Z,98499.86
2018-01-04T22:05:48.718Z,98497.83
2018-01-04T22:08:17.882Z,98500.58
2018-01-04T22:10:46.674Z,98488.25
2018-01-04T22:13:15.451Z,98481.27
2018-01-04T22:15:45.173Z,98478.14
2018-01-04T22:18:14.345Z,98483.66
2018-01-04T22:20:43.590Z,98474.38
2018-01-04T22:23:11.997Z,98473.31
2018-01-04T22:25:40.517Z,98451.72
2018-01-04T22:28:09.018Z,98450.74
2018-01-04T22:30:37.438Z,98445.81
2018-01-04T22:33:06.409Z,98459.86
2018-01-04T22:35:35.538Z,98457.20
2018-01-04T22:38:03.962Z,98462.67
2018-01-04T22:40:33.081Z,98469.09
2018-01-04T22:43:02.961Z,98464.34
2018-01-04T22:45:31.727Z,98464.93
2018-01-04T22:48:00.869Z,98460.17
2018-01-04T22:50:32.730Z,98466.95
2018-01-04T22:53:01.567Z,98478.27
2018-01-04T22:55:29.906Z,98475.94
2018-01-04T22:57:58.358Z,98463.78
2018-01-04T23:00:27.469Z,98461.87
2018-01-04T23:02:56.226Z,98470.12
2018-01-04T23:05:25.345Z,98479.35
2018-01-04T23:07:55.438Z,98468.74
2018-01-04T23:10:23.825Z,98469.23
2018-01-04T23:12:53.042Z,98476.74
2018-01-04T23:15:21.411Z,98479.52
2018-01-04T23:17:51.270Z,98479.19
2018-01-04T23:20:19.741Z,98473.95
2018-01-04T23:22:48.466Z,98478.67
2018-01-04T23:25:16.833Z,98484.64
2018-01-04T23:27:45.555Z,98487.75
2018-01-04T23:30:14.694Z,98484.46
2018-01-04T23:32:43.050Z,98487.34
2018-01-04T23:35:11.369Z,98489.25
2018-01-04T23:37:39.719Z,98499.59
2018-01-04T23:40:08.082Z,98506.45
2018-01-04T23:42:36.400Z,98506.00
2018-01-04T23:45:04.726Z,98480.11
2018-01-04T23:47:33.081Z,98473.34
2018-01-04T23:50:01.454Z,98472.91
2018-01-04T23:52:29.765Z,98473.28
2018-01-04T23:54:58.083Z,98468.97
2018-01-04T23:57:26.438Z,98463.25
2018-01-04T23:59:55.893Z,98475.18
